Time,TemperatureF,DewpointF,PressureIn,WindDirection,WindDirectionDegrees,WindSpeedMPH,WindSpeedGustMPH,Humidity,HourlyPrecipIn,Conditions,Clouds,dailyrainin,SoftwareType,DateUTC
2013-01-24 00:11:00,13.4,3.0,30.20,West,277,0.0,0.0,64,0.00,,,0.00,weatherlink.com 1.10,2013-01-24 05:11:00,
2013-01-24 00:28:00,13.1,4.0,30.19,West,277,0.0,0.0,66,0.00,,,0.00,weatherlink.com 1.10,2013-01-24 05:28:00,
2013-01-24 00:43:00,13.1,4.0,30.18,West,277,0.0,0.0,66,0.00,,,0.00,weatherlink.com 1.10,2013-01-24 05:43:00,
2013-01-24 00:58:00,13.6,2.0,30.18,West,277,0.0,0.0,61,0.00,,,0.00,weatherlink.com 1.10,2013-01-24 05:58:00,
2013-01-24 01:14:00,14.0,3.0,30.18,West,277,0.0,0.0,61,0.00,,,0.00,weatherlink.com 1.10,2013-01-24 06:14:00,
2013-01-24 01:28:00,14.1,2.0,30.17,NE,44,0.0,0.0,59,0.00,,,0.00,weatherlink.com 1.10,2013-01-24 06:28:00,
2013-01-24 01:43:00,14.3,2.0,30.16,NE,52,0.0,2.0,58,0.00,,,0.00,weatherlink.com 1.10,2013-01-24 06:43:00,
2013-01-24 01:58:00,14.5,2.0,30.17,East,101,0.0,2.0,57,0.00,,,0.00,weatherlink.com 1.10,2013-01-24 06:58:00,
2013-01-24 02:13:00,14.8,3.0,30.17,East,101,0.0,0.0,59,0.00,,,0.00,weatherlink.com 1.10,2013-01-24 07:13:00,
2013-01-24 02:28:00,14.4,4.0,30.17,SSE,153,0.0,2.0,64,0.00,,,0.00,weatherlink.com 1.10,2013-01-24 07:28:00,
2013-01-24 02:44:00,14.4,5.0,30.18,SSE,153,0.0,0.0,65,0.00,,,0.00,weatherlink.com 1.10,2013-01-24 07:44:00,
2013-01-24 02:58:00,14.0,4.0,30.18,SSE,168,0.0,1.0,65,0.00,,,0.00,weatherlink.com 1.10,2013-01-24 07:58:00,
2013-01-24 03:14:00,14.2,4.0,30.18,SSE,162,0.0,0.0,65,0.00,,,0.00,weatherlink.com 1.10,2013-01-24 08:14:00,
2013-01-24 03:29:00,14.0,6.0,30.18,SSW,201,0.0,0.0,71,0.00,,,0.00,weatherlink.com 1.10,2013-01-24 08:29:00,
2013-01-24 03:44:00,13.5,8.0,30.18,East,95,0.0,2.0,77,0.00,,,0.00,weatherlink.com 1.10,2013-01-24 08:44:00,
2013-01-24 03:59:00,13.4,8.0,30.18,WNW,286,0.0,3.0,78,0.00,,,0.00,weatherlink.com 1.10,2013-01-24 08:59:00,
2013-01-24 04:14:00,13.5,8.0,30.18,West,278,0.0,3.0,79,0.00,,,0.00,weatherlink.com 1.10,2013-01-24 09:14:00,
2013-01-24 04:29:00,13.4,8.0,30.19,WNW,302,0.0,3.0,80,0.00,,,0.00,weatherlink.com 1.10,2013-01-24 09:29:00,
2013-01-24 04:45:00,13.4,9.0,30.19,NW,310,0.0,0.0,82,0.00,,,0.00,weatherlink.com 1.10,2013-01-24 09:45:00,
2013-01-24 05:01:00,13.2,9.0,30.20,West,265,0.0,2.0,82,0.00,,,0.00,weatherlink.com 1.10,2013-01-24 10:01:00,
2013-01-24 05:15:00,13.4,9.0,30.20,WNW,292,0.0,3.0,82,0.00,,,0.00,weatherlink.com 1.10,2013-01-24 10:15:00,
2013-01-24 05:29:00,13.2,9.0,30.21,WNW,292,0.0,4.0,83,0.00,,,0.00,weatherlink.com 1.10,2013-01-24 10:29:00,
2013-01-24 05:44:00,13.2,9.0,30.22,NW,314,0.0,2.0,83,0.00,,,0.00,weatherlink.com 1.10,2013-01-24 10:44:00,
2013-01-24 06:00:00,13.2,9.0,30.22,WNW,290,1.0,4.0,84,0.00,,,0.00,weatherlink.com 1.10,2013-01-24 11:00:00,
2013-01-24 06:15:00,13.3,9.0,30.23,West,279,1.0,3.0,81,0.00,,,0.00,weatherlink.com 1.10,2013-01-24 11:15:00,
2013-01-24 06:30:00,13.3,9.0,30.23,NNW,333,2.0,2.0,82,0.00,,,0.00,weatherlink.com 1.10,2013-01-24 11:30:00,
2013-01-24 06:45:00,13.2,8.0,30.24,WNW,300,0.0,3.0,81,0.00,,,0.00,weatherlink.com 1.10,2013-01-24 11:45:00,
2013-01-24 07:01:00,13.1,9.0,30.25,NW,306,2.0,3.0,82,0.00,,,0.00,weatherlink.com 1.10,2013-01-24 12:01:00,
2013-01-24 07:17:00,13.0,9.0,30.26,West,280,1.0,3.0,82,0.00,,,0.00,weatherlink.com 1.10,2013-01-24 12:17:00,
2013-01-24 07:32:00,12.9,8.0,30.26,West,266,3.0,4.0,82,0.00,,,0.00,weatherlink.com 1.10,2013-01-24 12:32:00,
2013-01-24 07:47:00,13.0,9.0,30.27,WNW,299,1.0,4.0,83,0.00,,,0.00,weatherlink.com 1.10,2013-01-24 12:47:00,
2013-01-24 08:01:00,13.3,9.0,30.27,WNW,297,2.0,4.0,82,0.00,,,0.00,weatherlink.com 1.10,2013-01-24 13:01:00,
2013-01-24 08:16:00,13.7,9.0,30.28,NW,311,1.0,6.0,81,0.00,,,0.00,weatherlink.com 1.10,2013-01-24 13:16:00,
2013-01-24 08:32:00,13.9,9.0,30.29,NNE,20,2.0,6.0,79,0.00,,,0.00,weatherlink.com 1.10,2013-01-24 13:32:00,
2013-01-24 08:47:00,14.2,9.0,30.30,NNW,333,2.0,7.0,79,0.00,,,0.00,weatherlink.com 1.10,2013-01-24 13:47:00,
2013-01-24 09:01:00,14.7,8.0,30.30,WSW,257,3.0,11.0,76,0.00,,,0.00,weatherlink.com 1.10,2013-01-24 14:01:00,
2013-01-24 09:17:00,15.0,8.0,30.31,NW,321,1.0,10.0,74,0.00,,,0.00,weatherlink.com 1.10,2013-01-24 14:17:00,
2013-01-24 09:32:00,15.9,9.0,30.32,NW,308,4.0,8.0,75,0.00,,,0.00,weatherlink.com 1.10,2013-01-24 14:32:00,
2013-01-24 09:48:00,16.7,9.0,30.33,NW,316,3.0,8.0,72,0.00,,,0.00,weatherlink.com 1.10,2013-01-24 14:48:00,
2013-01-24 10:17:00,17.5,8.0,30.35,NW,319,7.0,15.0,66,0.00,,,0.00,weatherlink.com 1.10,2013-01-24 15:17:00,
2013-01-24 10:33:00,17.4,8.0,30.36,NNE,19,3.0,12.0,66,0.00,,,0.00,weatherlink.com 1.10,2013-01-24 15:33:00,
2013-01-24 10:48:00,17.7,9.0,30.36,West,267,9.0,13.0,68,0.00,,,0.00,weatherlink.com 1.10,2013-01-24 15:48:00,
2013-01-24 11:02:00,17.5,8.0,30.37,North,5,5.0,17.0,66,0.00,,,0.00,weatherlink.com 1.10,2013-01-24 16:02:00,
2013-01-24 11:18:00,18.2,7.0,30.37,NW,308,2.0,10.0,63,0.00,,,0.00,weatherlink.com 1.10,2013-01-24 16:18:00,
2013-01-24 11:33:00,18.0,8.0,30.37,NW,313,4.0,14.0,65,0.00,,,0.00,weatherlink.com 1.10,2013-01-24 16:33:00,
2013-01-24 11:48:00,19.0,8.0,30.38,WNW,298,5.0,14.0,63,0.00,,,0.00,weatherlink.com 1.10,2013-01-24 16:48:00,
2013-01-24 12:04:00,18.6,6.0,30.37,NW,315,5.0,12.0,59,0.00,,,0.00,weatherlink.com 1.10,2013-01-24 17:04:00,
2013-01-24 12:19:00,20.2,6.0,30.38,WSW,254,7.0,14.0,55,0.00,,,0.00,weatherlink.com 1.10,2013-01-24 17:19:00,
2013-01-24 12:34:00,20.2,5.0,30.38,North,5,4.0,13.0,52,0.00,,,0.00,weatherlink.com 1.10,2013-01-24 17:34:00,
2013-01-24 12:49:00,20.1,4.0,30.38,WNW,286,9.0,16.0,49,0.00,,,0.00,weatherlink.com 1.10,2013-01-24 17:49:00,
2013-01-24 13:04:00,21.4,4.0,30.38,North,355,4.0,18.0,48,0.00,,,0.00,weatherlink.com 1.10,2013-01-24 18:04:00,
2013-01-24 13:20:00,21.4,2.0,30.38,NNW,338,7.0,17.0,43,0.00,,,0.00,weatherlink.com 1.10,2013-01-24 18:20:00,
2013-01-24 13:34:00,21.9,1.0,30.37,NNW,328,6.0,19.0,40,0.00,,,0.00,weatherlink.com 1.10,2013-01-24 18:34:00,
2013-01-24 13:50:00,22.3,1.0,30.37,NNW,336,5.0,15.0,40,0.00,,,0.00,weatherlink.com 1.10,2013-01-24 18:50:00,
2013-01-24 14:05:00,22.1,0.0,30.38,WNW,286,2.0,19.0,38,0.00,,,0.00,weatherlink.com 1.10,2013-01-24 19:05:00,
2013-01-24 14:19:00,22.9,-1.0,30.38,NW,308,6.0,19.0,36,0.00,,,0.00,weatherlink.com 1.10,2013-01-24 19:19:00,
2013-01-24 14:35:00,22.4,-1.0,30.39,NW,317,2.0,13.0,36,0.00,,,0.00,weatherlink.com 1.10,2013-01-24 19:35:00,
2013-01-24 14:50:00,23.1,-2.0,30.39,NE,47,3.0,21.0,33,0.00,,,0.00,weatherlink.com 1.10,2013-01-24 19:50:00,
2013-01-24 15:05:00,22.7,-2.0,30.40,WNW,295,8.0,12.0,34,0.00,,,0.00,weatherlink.com 1.10,2013-01-24 20:05:00,
2013-01-24 15:20:00,22.9,-1.0,30.41,WSW,253,6.0,14.0,35,0.00,,,0.00,weatherlink.com 1.10,2013-01-24 20:20:00,
2013-01-24 15:35:00,23.4,-1.0,30.41,NW,321,6.0,18.0,35,0.00,,,0.00,weatherlink.com 1.10,2013-01-24 20:35:00,
2013-01-24 15:50:00,23.2,0.0,30.42,NW,315,7.0,18.0,36,0.00,,,0.00,weatherlink.com 1.10,2013-01-24 20:50:00,
2013-01-24 16:06:00,22.5,-1.0,30.43,WNW,286,2.0,12.0,36,0.00,,,0.00,weatherlink.com 1.10,2013-01-24 21:06:00,
2013-01-24 16:21:00,22.5,-1.0,30.43,WNW,301,2.0,12.0,36,0.00,,,0.00,weatherlink.com 1.10,2013-01-24 21:21:00,
2013-01-24 16:36:00,22.7,-1.0,30.44,NW,314,5.0,11.0,36,0.00,,,0.00,weatherlink.com 1.10,2013-01-24 21:36:00,
2013-01-24 16:51:00,22.5,0.0,30.44,West,273,5.0,13.0,37,0.00,,,0.00,weatherlink.com 1.10,2013-01-24 21:51:00,
2013-01-24 17:07:00,22.0,-1.0,30.44,West,265,5.0,10.0,37,0.00,,,0.00,weatherlink.com 1.10,2013-01-24 22:07:00,
2013-01-24 17:21:00,21.6,0.0,30.45,WNW,286,6.0,12.0,39,0.00,,,0.00,weatherlink.com 1.10,2013-01-24 22:21:00,
2013-01-24 17:36:00,21.3,0.0,30.46,West,261,5.0,10.0,40,0.00,,,0.00,weatherlink.com 1.10,2013-01-24 22:36:00,
2013-01-24 17:51:00,20.6,1.0,30.47,WNW,290,4.0,4.0,42,0.00,,,0.00,weatherlink.com 1.10,2013-01-24 22:51:00,
2013-01-24 18:21:00,20.4,2.0,30.48,West,267,5.0,7.0,44,0.00,,,0.00,weatherlink.com 1.10,2013-01-24 23:21:00,
2013-01-24 18:38:00,20.3,2.0,30.49,NW,317,0.0,7.0,45,0.00,,,0.00,weatherlink.com 1.10,2013-01-24 23:38:00,
2013-01-24 18:52:00,20.2,2.0,30.49,WNW,292,1.0,7.0,45,0.00,,,0.00,weatherlink.com 1.10,2013-01-24 23:52:00,
2013-01-24 19:06:00,20.0,2.0,30.50,West,261,2.0,6.0,45,0.00,,,0.00,weatherlink.com 1.10,2013-01-25 00:06:00,
2013-01-24 19:37:00,19.4,2.0,30.51,NW,317,1.0,3.0,47,0.00,,,0.00,weatherlink.com 1.10,2013-01-25 00:37:00,
2013-01-24 19:52:00,19.4,3.0,30.51,NNW,334,1.0,7.0,48,0.00,,,0.00,weatherlink.com 1.10,2013-01-25 00:52:00,
2013-01-24 20:07:00,18.8,2.0,30.51,WNW,282,0.0,6.0,49,0.00,,,0.00,weatherlink.com 1.10,2013-01-25 01:07:00,
2013-01-24 20:23:00,18.5,3.0,30.50,West,265,0.0,3.0,50,0.00,,,0.00,weatherlink.com 1.10,2013-01-25 01:23:00,
2013-01-24 20:38:00,18.1,2.0,30.50,WNW,290,0.0,2.0,50,0.00,,,0.00,weatherlink.com 1.10,2013-01-25 01:38:00,
2013-01-24 20:52:00,17.9,2.0,30.51,NW,313,0.0,3.0,51,0.00,,,0.00,weatherlink.com 1.10,2013-01-25 01:52:00,
2013-01-24 21:08:00,18.0,2.0,30.52,WSW,238,0.0,4.0,50,0.00,,,0.00,weatherlink.com 1.10,2013-01-25 02:08:00,
2013-01-24 21:24:00,18.3,2.0,30.52,WNW,298,4.0,7.0,50,0.00,,,0.00,weatherlink.com 1.10,2013-01-25 02:24:00,
2013-01-24 21:38:00,18.4,2.0,30.52,WNW,290,0.0,7.0,49,0.00,,,0.00,weatherlink.com 1.10,2013-01-25 02:38:00,
2013-01-24 21:54:00,18.1,2.0,30.51,West,277,3.0,7.0,50,0.00,,,0.00,weatherlink.com 1.10,2013-01-25 02:54:00,
2013-01-24 22:09:00,17.8,2.0,30.51,NNW,328,3.0,8.0,50,0.00,,,0.00,weatherlink.com 1.10,2013-01-25 03:09:00,
2013-01-24 22:23:00,17.4,2.0,30.51,NW,325,2.0,8.0,51,0.00,,,0.00,weatherlink.com 1.10,2013-01-25 03:23:00,
2013-01-24 22:38:00,17.5,2.0,30.52,NW,313,3.0,5.0,50,0.00,,,0.00,weatherlink.com 1.10,2013-01-25 03:38:00,
2013-01-24 22:54:00,17.5,2.0,30.52,WSW,240,5.0,10.0,50,0.00,,,0.00,weatherlink.com 1.10,2013-01-25 03:54:00,
2013-01-24 23:09:00,17.5,2.0,30.52,SW,225,6.0,10.0,50,0.00,,,0.00,weatherlink.com 1.10,2013-01-25 04:09:00,
2013-01-24 23:24:00,17.1,1.0,30.51,WNW,292,2.0,9.0,50,0.00,,,0.00,weatherlink.com 1.10,2013-01-25 04:24:00,
2013-01-24 23:40:00,16.8,1.0,30.52,WSW,243,4.0,9.0,50,0.00,,,0.00,weatherlink.com 1.10,2013-01-25 04:40:00,
2013-01-24 23:55:00,16.5,1.0,30.52,WSW,251,4.0,9.0,50,0.00,,,0.00,weatherlink.com 1.10,2013-01-25 04:55:00,